Time;durP1;ratioP1;P1;durP2;ratioP2;P2;SDS_P1;SDS_P2;PMS_P1;PMS_P2;Temp;Humidity;BMP_temperature;BMP_pressure;BME280_temperature;BME280_humidity;BME280_pressure;Samples;Min_cycle;Max_cycle;Signal;HPM_P1;HPM_P2
2022/08/29 00:00:16;;;;;;;10.65;2.90;;;17.00;96.60;;;;;;5105100;27;37600;-57
2022/08/29 00:02:45;;;;;;;9.60;2.72;;;17.00;96.70;;;;;;5102748;27;36544;-57
2022/08/29 00:05:13;;;;;;;9.75;2.80;;;17.00;96.90;;;;;;5104520;27;37695;-57
2022/08/29 00:07:40;;;;;;;9.10;2.55;;;17.00;96.90;;;;;;5105054;27;37298;-57
2022/08/29 00:10:08;;;;;;;8.30;3.03;;;17.00;97.00;;;;;;5104366;27;36242;-57
2022/08/29 00:12:36;;;;;;;7.15;3.00;;;17.00;97.20;;;;;;5105440;27;35537;-57
2022/08/29 00:15:05;;;;;;;7.45;2.72;;;17.00;97.30;;;;;;5105174;27;37650;-57
2022/08/29 00:17:33;;;;;;;6.68;2.50;;;17.00;97.40;;;;;;5105104;27;37893;-57
2022/08/29 00:20:01;;;;;;;9.65;3.33;;;17.00;97.50;;;;;;5103934;27;37219;-57
2022/08/29 00:22:29;;;;;;;10.40;2.75;;;17.00;97.50;;;;;;5102562;27;37025;-57
2022/08/29 00:24:56;;;;;;;9.70;2.78;;;17.00;97.60;;;;;;5102436;27;38151;-57
2022/08/29 00:27:23;;;;;;;6.85;2.50;;;17.00;97.70;;;;;;5103589;27;36508;-57
2022/08/29 00:29:51;;;;;;;10.27;3.22;;;17.00;97.90;;;;;;5104762;27;39573;-57
2022/08/29 00:32:18;;;;;;;7.97;2.97;;;17.00;97.90;;;;;;5104305;27;36540;-56
2022/08/29 00:34:45;;;;;;;9.48;2.67;;;17.00;97.90;;;;;;5103434;27;38968;-57
2022/08/29 00:37:14;;;;;;;12.63;3.80;;;17.00;98.00;;;;;;5105025;27;37888;-57
2022/08/29 00:39:41;;;;;;;12.52;3.30;;;17.00;98.00;;;;;;5103962;27;36698;-57
2022/08/29 00:42:08;;;;;;;6.85;2.80;;;17.00;98.10;;;;;;5104282;27;37985;-57
2022/08/29 00:44:36;;;;;;;9.05;3.00;;;17.00;98.40;;;;;;5101581;27;37937;-57
2022/08/29 00:47:06;;;;;;;11.90;3.05;;;17.00;98.20;;;;;;5103792;27;37486;-57
2022/08/29 00:49:39;;;;;;;9.52;2.92;;;17.00;98.30;;;;;;5104456;27;40471;-57
2022/08/29 00:52:13;;;;;;;8.15;3.00;;;17.00;98.30;;;;;;5104306;27;37617;-57
2022/08/29 00:54:47;;;;;;;10.00;2.88;;;17.00;98.30;;;;;;5104393;27;20174;-57
2022/08/29 00:57:15;;;;;;;7.10;2.63;;;16.90;98.40;;;;;;5103186;27;37978;-57
2022/08/29 00:59:43;;;;;;;10.98;3.33;;;16.90;98.50;;;;;;5104484;27;37251;-57
2022/08/29 01:02:10;;;;;;;7.15;2.65;;;16.90;98.60;;;;;;5103446;27;36503;-57
2022/08/29 01:04:39;;;;;;;7.65;2.88;;;16.90;98.70;;;;;;5102620;27;37324;-57
2022/08/29 01:07:07;;;;;;;7.18;2.60;;;17.00;98.80;;;;;;5103921;27;37898;-57
2022/08/29 01:09:36;;;;;;;9.15;3.03;;;17.00;98.80;;;;;;5104951;27;36279;-57
2022/08/29 01:12:14;;;;;;;7.13;2.40;;;17.00;98.90;;;;;;5102931;27;38107;-57
2022/08/29 01:14:46;;;;;;;8.65;2.78;;;17.00;98.90;;;;;;5104897;27;37336;-57
2022/08/29 01:17:18;;;;;;;6.00;2.20;;;17.10;98.90;;;;;;5102560;27;37695;-57
2022/08/29 01:19:52;;;;;;;6.55;3.22;;;17.00;99.00;;;;;;5104440;27;38333;-56
2022/08/29 01:22:42;;;;;;;9.15;2.80;;;17.10;99.20;;;;;;5104728;27;37655;-57
2022/08/29 01:25:15;;;;;;;11.02;3.15;;;17.10;99.40;;;;;;5105434;27;38662;-57
2022/08/29 01:27:52;;;;;;;9.65;2.53;;;17.10;99.50;;;;;;5100976;27;39817;-57
2022/08/29 01:30:20;;;;;;;8.07;2.85;;;17.10;99.60;;;;;;5104509;27;38821;-57
2022/08/29 01:32:47;;;;;;;7.25;2.20;;;17.10;99.70;;;;;;5102687;27;37164;-57
2022/08/29 01:35:15;;;;;;;7.43;2.15;;;17.10;99.90;;;;;;5103923;27;37573;-57
2022/08/29 01:37:43;;;;;;;6.78;2.28;;;17.10;99.90;;;;;;5102542;27;36771;-57
2022/08/29 01:40:13;;;;;;;9.07;2.08;;;17.10;99.90;;;;;;5103658;27;36243;-57
2022/08/29 01:42:40;;;;;;;7.68;2.20;;;17.10;99.90;;;;;;5103348;27;36342;-57
2022/08/29 01:45:09;;;;;;;5.20;1.70;;;17.10;99.90;;;;;;5103314;27;37274;-57
2022/08/29 01:47:37;;;;;;;6.60;1.73;;;17.10;99.90;;;;;;5102296;27;37735;-57
2022/08/29 01:50:07;;;;;;;6.85;2.55;;;17.10;99.90;;;;;;5104799;27;37384;-57
2022/08/29 01:52:34;;;;;;;5.93;2.15;;;17.10;99.90;;;;;;5103290;27;36391;-57
2022/08/29 01:55:02;;;;;;;5.75;1.98;;;17.10;99.90;;;;;;5103352;27;36496;-57
2022/08/29 01:57:30;;;;;;;8.45;2.13;;;17.10;99.90;;;;;;5102475;27;40194;-57
2022/08/29 01:59:58;;;;;;;6.13;1.85;;;17.10;99.90;;;;;;5102867;27;37591;-57
2022/08/29 02:02:28;;;;;;;5.30;1.98;;;17.10;99.90;;;;;;5102364;27;36706;-57
2022/08/29 02:04:57;;;;;;;5.97;1.90;;;17.10;99.90;;;;;;5103307;27;39175;-57
2022/08/29 02:07:25;;;;;;;6.03;1.75;;;17.10;99.90;;;;;;5103195;27;36544;-57
2022/08/29 02:09:53;;;;;;;5.10;1.98;;;17.10;99.90;;;;;;5103937;27;37885;-57
2022/08/29 02:12:21;;;;;;;6.20;1.70;;;17.10;99.90;;;;;;5102670;27;36622;-57
2022/08/29 02:14:50;;;;;;;5.88;2.15;;;17.10;99.90;;;;;;5103784;27;37539;-57
2022/08/29 02:17:18;;;;;;;6.93;1.90;;;17.10;99.90;;;;;;5103613;27;37684;-57
2022/08/29 02:19:45;;;;;;;6.32;1.67;;;17.10;99.90;;;;;;5103968;27;38343;-57
2022/08/29 02:22:13;;;;;;;7.40;1.88;;;17.10;99.90;;;;;;5104039;27;36406;-57
2022/08/29 02:24:40;;;;;;;6.20;2.35;;;17.20;99.90;;;;;;5102976;27;38221;-57
2022/08/29 02:27:09;;;;;;;6.50;1.95;;;17.20;99.90;;;;;;5102383;27;38037;-57
2022/08/29 02:29:37;;;;;;;6.78;2.13;;;17.10;99.90;;;;;;5106809;27;37289;-57
2022/08/29 02:32:07;;;;;;;6.60;1.88;;;17.20;99.90;;;;;;5106889;27;37611;-57
2022/08/29 02:34:34;;;;;;;6.45;1.90;;;17.10;99.90;;;;;;5107717;27;37990;-57
2022/08/29 02:37:01;;;;;;;8.05;2.58;;;17.10;99.90;;;;;;5106862;27;37695;-57
2022/08/29 02:39:29;;;;;;;7.07;1.95;;;17.20;99.90;;;;;;5107373;27;36237;-57
2022/08/29 02:41:57;;;;;;;5.55;2.20;;;17.20;99.90;;;;;;5107101;27;36453;-57
2022/08/29 02:44:24;;;;;;;8.25;2.80;;;17.20;99.90;;;;;;5106932;27;38031;-57
2022/08/29 02:46:51;;;;;;;8.23;2.38;;;17.20;99.90;;;;;;5106573;27;37634;-57
2022/08/29 02:49:20;;;;;;;9.15;2.20;;;17.20;99.90;;;;;;5105646;27;36800;-57
2022/08/29 02:51:47;;;;;;;9.82;2.13;;;17.20;99.90;;;;;;5106616;27;36351;-57
2022/08/29 02:54:14;;;;;;;7.20;2.40;;;17.20;99.90;;;;;;5106221;27;38159;-57
2022/08/29 02:56:42;;;;;;;8.90;2.45;;;17.20;99.90;;;;;;5106977;27;38161;-57
2022/08/29 02:59:09;;;;;;;5.68;2.17;;;17.20;99.90;;;;;;5106032;27;37741;-57
2022/08/29 03:01:37;;;;;;;8.93;2.05;;;17.20;99.90;;;;;;5107471;27;36617;-57
2022/08/29 03:04:05;;;;;;;7.55;2.13;;;17.20;99.90;;;;;;5106850;27;39158;-57
2022/08/29 03:06:34;;;;;;;6.50;2.33;;;17.20;99.90;;;;;;5105590;27;37449;-57
2022/08/29 03:09:01;;;;;;;9.05;2.40;;;17.10;99.90;;;;;;5105775;27;36288;-57
2022/08/29 03:11:29;;;;;;;7.80;2.30;;;17.10;99.90;;;;;;5107518;27;37268;-57
2022/08/29 03:13:57;;;;;;;8.85;2.08;;;17.10;99.90;;;;;;5106897;27;38428;-57
2022/08/29 03:16:24;;;;;;;5.57;1.85;;;17.10;99.90;;;;;;5106351;27;37657;-57
2022/08/29 03:18:51;;;;;;;5.85;2.05;;;17.10;99.90;;;;;;5105803;27;37412;-57
2022/08/29 03:21:21;;;;;;;5.95;2.20;;;17.10;99.90;;;;;;5105306;27;36308;-57
2022/08/29 03:23:50;;;;;;;6.25;2.13;;;17.10;99.90;;;;;;5106201;27;38812;-57
2022/08/29 03:26:18;;;;;;;5.78;1.90;;;17.10;99.90;;;;;;5105478;27;36368;-57
2022/08/29 03:28:46;;;;;;;12.38;2.40;;;17.10;99.90;;;;;;5104596;27;36275;-57
2022/08/29 03:31:13;;;;;;;6.57;1.63;;;17.10;99.90;;;;;;5105390;27;36932;-57
2022/08/29 03:33:40;;;;;;;3.80;1.42;;;17.10;99.90;;;;;;5106530;27;37316;-57
2022/08/29 03:36:10;;;;;;;7.03;2.03;;;17.10;99.90;;;;;;5104886;27;38868;-57
2022/08/29 03:38:38;;;;;;;8.45;2.15;;;17.10;99.90;;;;;;5105596;27;36180;-57
2022/08/29 03:41:07;;;;;;;5.40;1.70;;;17.10;99.90;;;;;;5105085;27;35364;-57
2022/08/29 03:43:35;;;;;;;7.57;1.88;;;17.10;99.90;;;;;;5106166;27;37637;-57
2022/08/29 03:46:02;;;;;;;7.70;2.10;;;17.10;99.90;;;;;;5106057;27;37867;-57
2022/08/29 03:48:29;;;;;;;8.10;1.98;;;17.10;99.90;;;;;;5105714;27;38038;-57
2022/08/29 03:50:56;;;;;;;7.90;2.22;;;17.10;99.90;;;;;;5104823;27;37774;-58
2022/08/29 03:53:24;;;;;;;9.70;2.13;;;17.10;99.90;;;;;;5105356;27;37764;-57
2022/08/29 03:55:51;;;;;;;5.68;1.70;;;17.10;99.90;;;;;;5104075;27;38630;-57
2022/08/29 03:58:20;;;;;;;8.40;2.15;;;17.10;99.90;;;;;;5104178;27;36270;-57
2022/08/29 04:00:47;;;;;;;7.85;2.72;;;17.10;99.90;;;;;;5105432;27;35366;-57
2022/08/29 04:03:15;;;;;;;7.25;1.95;;;17.10;99.90;;;;;;5106252;27;37672;-57
2022/08/29 04:05:42;;;;;;;6.30;2.03;;;17.10;99.90;;;;;;5105069;27;37695;-57
2022/08/29 04:08:09;;;;;;;7.47;1.67;;;17.10;99.90;;;;;;5105123;27;36447;-57
2022/08/29 04:10:39;;;;;;;6.35;1.73;;;17.20;99.90;;;;;;5105284;27;37267;-57
2022/08/29 04:13:07;;;;;;;8.38;2.50;;;17.20;99.90;;;;;;5104783;27;37071;-57
2022/08/29 04:15:38;;;;;;;8.32;2.22;;;17.10;99.90;;;;;;5106434;27;36472;-57
2022/08/29 04:18:07;;;;;;;7.70;1.73;;;17.10;99.90;;;;;;5105285;27;37016;-57
2022/08/29 04:20:40;;;;;;;6.60;1.77;;;17.00;99.90;;;;;;5105263;27;35281;-57
2022/08/29 04:23:09;;;;;;;9.07;2.20;;;17.00;99.90;;;;;;5104980;27;37593;-57
2022/08/29 04:25:36;;;;;;;6.10;1.80;;;17.00;99.90;;;;;;5103700;27;37372;-57
2022/08/29 04:28:04;;;;;;;7.57;2.35;;;17.00;99.90;;;;;;5103402;27;36181;-57
2022/08/29 04:30:31;;;;;;;6.20;2.00;;;17.00;99.90;;;;;;5105057;27;35353;-57
2022/08/29 04:33:01;;;;;;;7.10;2.38;;;17.00;99.90;;;;;;5103823;27;38202;-57
2022/08/29 04:35:28;;;;;;;5.15;1.85;;;16.90;99.90;;;;;;5104365;27;39562;-57
2022/08/29 04:37:56;;;;;;;6.47;1.63;;;16.90;99.90;;;;;;5104787;27;37205;-57
2022/08/29 04:40:23;;;;;;;6.38;1.70;;;16.90;99.90;;;;;;5102699;27;35419;-57
2022/08/29 04:42:51;;;;;;;8.05;1.88;;;16.90;99.90;;;;;;5103842;27;37845;-57
2022/08/29 04:45:20;;;;;;;6.20;1.80;;;16.90;99.90;;;;;;5105605;27;37497;-56
2022/08/29 04:47:47;;;;;;;8.27;2.45;;;16.90;99.90;;;;;;5103191;27;38480;-57
2022/08/29 04:50:18;;;;;;;7.05;1.75;;;16.90;99.90;;;;;;5104813;27;37422;-57
2022/08/29 04:52:45;;;;;;;6.97;1.58;;;16.90;99.90;;;;;;5103837;27;37794;-57
2022/08/29 04:55:14;;;;;;;9.50;1.83;;;16.90;99.90;;;;;;5104286;27;38084;-57
2022/08/29 04:57:42;;;;;;;7.95;2.00;;;16.90;99.90;;;;;;5104927;27;37387;-57
2022/08/29 05:00:14;;;;;;;6.82;1.85;;;16.90;99.90;;;;;;5104223;27;36555;-57
2022/08/29 05:02:43;;;;;;;8.63;1.60;;;16.90;99.90;;;;;;5103614;27;37067;-57
2022/08/29 05:05:12;;;;;;;6.25;1.60;;;16.90;99.90;;;;;;5105014;27;37208;-57
2022/08/29 05:07:42;;;;;;;6.20;1.80;;;16.90;99.90;;;;;;5104162;27;36260;-57
2022/08/29 05:10:12;;;;;;;5.45;1.83;;;16.90;99.90;;;;;;5103057;27;36416;-57
2022/08/29 05:12:40;;;;;;;9.73;2.22;;;17.00;99.90;;;;;;5103452;27;36482;-57
2022/08/29 05:15:08;;;;;;;8.02;1.70;;;17.00;99.90;;;;;;5103908;27;37171;-57
2022/08/29 05:17:35;;;;;;;6.00;2.00;;;17.10;99.90;;;;;;5103042;27;37339;-57
2022/08/29 05:20:05;;;;;;;9.73;2.40;;;17.00;99.90;;;;;;5103749;27;36701;-57
2022/08/29 05:22:33;;;;;;;13.45;2.60;;;17.10;99.90;;;;;;5103577;27;39433;-57
2022/08/29 05:25:03;;;;;;;9.32;1.83;;;17.10;99.90;;;;;;5102742;27;37482;-57
2022/08/29 05:27:31;;;;;;;6.85;1.60;;;17.10;99.90;;;;;;5103843;27;36354;-57
2022/08/29 05:29:58;;;;;;;9.55;2.30;;;17.10;99.90;;;;;;5104290;27;37648;-57
2022/08/29 05:32:25;;;;;;;8.82;2.05;;;17.20;99.90;;;;;;5102798;27;38471;-57
2022/08/29 05:34:54;;;;;;;9.50;2.35;;;17.20;99.90;;;;;;5103261;27;36484;-57
2022/08/29 05:37:22;;;;;;;8.13;1.77;;;17.20;99.90;;;;;;5101659;27;36206;-57
2022/08/29 05:39:50;;;;;;;8.30;1.83;;;17.20;99.90;;;;;;5102485;27;37525;-57
2022/08/29 05:42:20;;;;;;;8.40;2.25;;;17.20;99.90;;;;;;5103906;27;37805;-57
2022/08/29 05:44:48;;;;;;;12.18;2.13;;;17.20;99.90;;;;;;5104401;27;39834;-57
2022/08/29 05:47:17;;;;;;;7.13;2.20;;;17.30;99.90;;;;;;5103369;27;37412;-57
2022/08/29 05:49:46;;;;;;;4.32;1.48;;;17.30;99.90;;;;;;5105079;27;37485;-57
2022/08/29 05:52:16;;;;;;;8.27;2.65;;;17.30;99.90;;;;;;5103513;27;37598;-57
2022/08/29 05:54:44;;;;;;;7.00;1.50;;;17.30;99.90;;;;;;5101064;27;36414;-58
2022/08/29 05:57:13;;;;;;;10.18;1.50;;;17.30;99.90;;;;;;5103958;27;37503;-57
2022/08/29 05:59:42;;;;;;;5.63;1.60;;;17.30;99.90;;;;;;5101984;27;35667;-57
2022/08/29 06:02:11;;;;;;;6.50;1.73;;;17.30;99.90;;;;;;5103745;27;37782;-57
2022/08/29 06:04:39;;;;;;;6.15;1.65;;;17.30;99.90;;;;;;5106257;27;38759;-57
2022/08/29 06:07:07;;;;;;;8.32;2.13;;;17.40;99.90;;;;;;5107309;27;37904;-57
2022/08/29 06:09:35;;;;;;;5.60;1.88;;;17.40;99.90;;;;;;5106386;27;35780;-57
2022/08/29 06:12:03;;;;;;;5.68;1.67;;;17.40;99.90;;;;;;5107313;27;39877;-57
2022/08/29 06:14:30;;;;;;;6.30;1.77;;;17.40;99.90;;;;;;5106871;27;38145;-57
2022/08/29 06:16:59;;;;;;;9.93;2.28;;;17.50;99.90;;;;;;5107130;27;38380;-57
2022/08/29 06:19:28;;;;;;;8.82;1.88;;;17.50;99.90;;;;;;5106776;27;36543;-57
2022/08/29 06:21:56;;;;;;;7.68;1.75;;;17.50;99.90;;;;;;5107820;27;39848;-57
2022/08/29 06:24:23;;;;;;;5.85;2.08;;;17.60;99.90;;;;;;5105712;27;37603;-57
2022/08/29 06:26:50;;;;;;;7.03;1.85;;;17.60;99.90;;;;;;5106091;27;38101;-57
2022/08/29 06:29:18;;;;;;;7.18;1.90;;;17.60;99.90;;;;;;5104959;27;36827;-57
2022/08/29 06:31:45;;;;;;;7.72;2.13;;;17.70;99.90;;;;;;5107219;27;37503;-57
2022/08/29 06:34:14;;;;;;;7.50;1.95;;;17.80;99.90;;;;;;5106817;27;38352;-57
2022/08/29 06:36:41;;;;;;;9.10;2.35;;;17.80;99.90;;;;;;5105957;27;38410;-57
2022/08/29 06:39:11;;;;;;;5.47;1.92;;;17.80;99.90;;;;;;5105972;27;36554;-57
2022/08/29 06:41:40;;;;;;;11.63;2.80;;;17.80;99.90;;;;;;5106074;27;39723;-57
2022/08/29 06:44:08;;;;;;;9.00;2.45;;;17.90;99.90;;;;;;5106384;27;37503;-57
2022/08/29 06:46:38;;;;;;;11.10;2.58;;;17.90;99.90;;;;;;5107020;27;37715;-57
2022/08/29 06:49:07;;;;;;;11.00;2.60;;;18.00;99.90;;;;;;5107216;27;37266;-57
2022/08/29 06:51:38;;;;;;;13.88;3.75;;;18.00;99.90;;;;;;5106755;27;37599;-57
2022/08/29 06:54:09;;;;;;;20.65;3.75;;;18.00;99.90;;;;;;5105588;27;37768;-57
2022/08/29 06:56:36;;;;;;;10.98;2.35;;;18.00;99.90;;;;;;5106321;27;36898;-57
2022/08/29 06:59:04;;;;;;;9.25;2.60;;;18.00;99.90;;;;;;5106903;27;36469;-57
2022/08/29 07:01:32;;;;;;;11.48;2.63;;;18.10;99.90;;;;;;5105481;27;39329;-57
2022/08/29 07:04:00;;;;;;;12.98;3.28;;;18.10;99.90;;;;;;5108145;27;36641;-57
2022/08/29 07:06:29;;;;;;;11.35;2.90;;;18.20;99.90;;;;;;5105480;27;36039;-57
2022/08/29 07:08:59;;;;;;;12.88;3.33;;;18.20;99.90;;;;;;5106265;27;36581;-57
2022/08/29 07:11:29;;;;;;;11.27;2.97;;;18.20;99.90;;;;;;5106570;27;38141;-57
2022/08/29 07:13:58;;;;;;;15.82;3.17;;;18.20;99.90;;;;;;5105553;27;36616;-57
2022/08/29 07:16:26;;;;;;;10.55;2.78;;;18.20;99.90;;;;;;5105413;27;38580;-57
2022/08/29 07:18:53;;;;;;;12.68;3.08;;;18.20;99.90;;;;;;5105699;27;35210;-57
2022/08/29 07:21:23;;;;;;;15.57;3.55;;;18.20;99.90;;;;;;5105393;27;38539;-57
2022/08/29 07:23:52;;;;;;;13.32;3.33;;;18.20;99.90;;;;;;5105213;27;37873;-57
2022/08/29 07:26:23;;;;;;;14.70;3.60;;;18.20;99.90;;;;;;5105412;27;35619;-57
2022/08/29 07:28:53;;;;;;;13.02;3.17;;;18.30;99.90;;;;;;5105428;27;35547;-57
2022/08/29 07:31:21;;;;;;;9.02;2.25;;;18.30;99.90;;;;;;5105119;27;37397;-57
2022/08/29 07:33:49;;;;;;;10.70;2.53;;;18.30;99.90;;;;;;5103930;27;37563;-57
2022/08/29 07:36:16;;;;;;;13.95;3.65;;;18.30;99.90;;;;;;5105125;27;37332;-57
2022/08/29 07:38:43;;;;;;;12.93;3.10;;;18.30;99.90;;;;;;5111721;27;36163;-57
2022/08/29 07:41:13;;;;;;;12.30;3.10;;;18.30;99.90;;;;;;5112026;27;37589;-57
2022/08/29 07:43:43;;;;;;;13.48;3.35;;;18.30;99.90;;;;;;5113447;27;37933;-57
2022/08/29 07:46:12;;;;;;;9.75;2.88;;;18.40;99.90;;;;;;5101771;27;38190;-57
2022/08/29 07:48:40;;;;;;;16.33;3.40;;;18.40;99.90;;;;;;5102753;27;36536;-57
2022/08/29 07:51:08;;;;;;;11.25;3.33;;;18.40;99.90;;;;;;5103763;27;37646;-57
2022/08/29 07:53:35;;;;;;;15.23;3.55;;;18.40;99.90;;;;;;5104901;27;36606;-57
2022/08/29 07:56:06;;;;;;;11.52;3.05;;;18.40;99.90;;;;;;5105434;27;37666;-57
2022/08/29 07:58:33;;;;;;;12.40;3.03;;;18.50;99.90;;;;;;5095190;27;36361;-57
2022/08/29 08:01:03;;;;;;;13.75;3.33;;;18.50;99.90;;;;;;5100977;27;37516;-57
2022/08/29 08:03:31;;;;;;;10.90;2.50;;;18.50;99.90;;;;;;5101325;27;37815;-57
2022/08/29 08:05:58;;;;;;;11.90;3.28;;;18.50;99.90;;;;;;5100410;27;37194;-57
2022/08/29 08:08:26;;;;;;;12.35;3.20;;;18.60;99.90;;;;;;5099276;27;38967;-57
2022/08/29 08:10:53;;;;;;;9.15;2.33;;;18.60;99.90;;;;;;5098589;27;38271;-57
2022/08/29 08:13:21;;;;;;;10.63;2.75;;;18.50;99.90;;;;;;5098400;27;36716;-58
2022/08/29 08:15:48;;;;;;;14.52;3.10;;;18.60;99.90;;;;;;5096797;27;36247;-57
2022/08/29 08:18:17;;;;;;;11.05;3.40;;;18.60;99.90;;;;;;5097462;27;37255;-57
2022/08/29 08:20:47;;;;;;;13.52;3.63;;;18.60;99.90;;;;;;5098181;27;40099;-57
2022/08/29 08:23:15;;;;;;;10.70;3.15;;;18.70;99.90;;;;;;5098150;27;36488;-57
2022/08/29 08:25:43;;;;;;;15.82;3.72;;;18.70;99.90;;;;;;5096885;27;36157;-57
2022/08/29 08:28:12;;;;;;;9.82;2.85;;;18.80;99.90;;;;;;5097578;27;36845;-58
2022/08/29 08:30:40;;;;;;;13.80;3.05;;;18.90;99.90;;;;;;5096462;27;36428;-57
2022/08/29 08:33:07;;;;;;;9.40;3.00;;;18.90;99.90;;;;;;5096749;27;37779;-57
2022/08/29 08:35:37;;;;;;;14.32;3.70;;;19.00;99.90;;;;;;5097418;27;37290;-57
2022/08/29 08:38:07;;;;;;;13.35;3.65;;;19.00;99.90;;;;;;5097743;27;35469;-57
2022/08/29 08:40:42;;;;;;;11.27;3.50;;;19.10;99.90;;;;;;5098225;27;37639;-57
2022/08/29 08:43:13;;;;;;;15.02;3.42;;;19.20;99.90;;;;;;5098154;27;38096;-57
2022/08/29 08:45:42;;;;;;;11.75;2.97;;;19.20;99.90;;;;;;5095855;27;37186;-57
2022/08/29 08:48:16;;;;;;;12.05;3.30;;;19.30;99.90;;;;;;5097531;27;36602;-57
2022/08/29 08:50:49;;;;;;;12.73;3.13;;;19.40;99.90;;;;;;5099161;27;37463;-57
2022/08/29 08:53:21;;;;;;;11.38;3.08;;;19.50;99.90;;;;;;5098730;27;39897;-57
2022/08/29 08:55:50;;;;;;;9.65;3.20;;;19.70;99.90;;;;;;5098200;27;37885;-57
2022/08/29 08:58:32;;;;;;;11.48;2.97;;;19.90;99.90;;;;;;5097932;27;36232;-57
2022/08/29 09:01:03;;;;;;;17.63;3.55;;;20.10;99.90;;;;;;5097429;27;39686;-57
2022/08/29 09:03:59;;;;;;;15.70;4.03;;;20.20;99.90;;;;;;5097377;27;37956;-57
2022/08/29 09:06:44;;;;;;;12.60;3.15;;;20.40;99.90;;;;;;5096909;27;38752;-58
2022/08/29 09:09:20;;;;;;;16.42;4.57;;;20.40;99.90;;;;;;5098122;27;36974;-58
2022/08/29 09:12:00;;;;;;;13.13;3.35;;;20.40;99.90;;;;;;5096881;27;40207;-57
2022/08/29 09:14:45;;;;;;;10.95;2.85;;;20.50;99.90;;;;;;5097456;27;36451;-57
2022/08/29 09:17:19;;;;;;;14.43;3.53;;;20.50;99.90;;;;;;5098014;27;37403;-57
2022/08/29 09:19:49;;;;;;;8.15;2.88;;;20.50;99.90;;;;;;5097523;27;36641;-57
2022/08/29 09:22:23;;;;;;;13.30;3.10;;;20.40;99.90;;;;;;5097666;27;36202;-57
2022/08/29 09:24:56;;;;;;;15.45;3.78;;;20.30;99.90;;;;;;5097982;27;38344;-58
2022/08/29 09:27:26;;;;;;;13.95;3.65;;;20.20;99.90;;;;;;5097828;27;37298;-57
2022/08/29 09:30:05;;;;;;;14.40;3.25;;;20.10;99.90;;;;;;5097087;27;36405;-57
2022/08/29 09:32:32;;;;;;;14.82;3.67;;;20.00;99.90;;;;;;5097475;27;37957;-57
2022/08/29 09:35:00;;;;;;;10.52;3.30;;;20.00;99.90;;;;;;5097140;27;35847;-57
2022/08/29 09:37:30;;;;;;;14.00;3.15;;;19.90;99.90;;;;;;5098388;27;37346;-57
2022/08/29 09:40:02;;;;;;;10.85;3.85;;;19.90;99.90;;;;;;5098031;27;35451;-57
2022/08/29 09:42:32;;;;;;;9.10;3.80;;;19.90;99.90;;;;;;5096269;27;38200;-58
2022/08/29 09:45:08;;;;;;;10.77;3.17;;;19.90;99.90;;;;;;5097568;27;38130;-57
2022/08/29 09:47:35;;;;;;;10.43;3.40;;;19.90;99.90;;;;;;5097306;27;36047;-57
2022/08/29 09:50:09;;;;;;;9.05;3.53;;;19.90;99.90;;;;;;5098575;27;36979;-57
2022/08/29 09:52:41;;;;;;;10.63;3.28;;;20.10;99.90;;;;;;5097474;27;38763;-58
2022/08/29 09:55:23;;;;;;;10.00;3.63;;;20.40;99.90;;;;;;5098502;27;37740;-57
2022/08/29 09:57:53;;;;;;;12.00;3.08;;;20.60;99.90;;;;;;5097299;27;36981;-57
2022/08/29 10:00:26;;;;;;;16.27;4.05;;;20.70;99.90;;;;;;5098833;27;37294;-58
2022/08/29 10:02:54;;;;;;;;;;;20.90;99.90;;;;;;5099349;27;36495;-57
2022/08/29 10:05:33;;;;;;;9.07;3.20;;;21.10;99.90;;;;;;5098099;27;39399;-57
2022/08/29 10:08:04;;;;;;;13.02;3.83;;;21.00;99.90;;;;;;5097393;27;37331;-57
2022/08/29 10:10:35;;;;;;;14.85;3.75;;;21.00;99.90;;;;;;5097256;27;37277;-58
2022/08/29 10:13:09;;;;;;;9.50;3.05;;;20.90;99.80;;;;;;5097559;27;36427;-57
2022/08/29 10:15:41;;;;;;;10.70;3.80;;;20.80;99.80;;;;;;5097594;27;36660;-57
2022/08/29 10:18:23;;;;;;;9.35;3.42;;;20.70;99.90;;;;;;5091752;27;36362;-58
2022/08/29 10:20:58;;;;;;;11.52;3.25;;;20.70;99.90;;;;;;5097120;27;36754;-55
2022/08/29 10:23:36;;;;;;;12.38;3.92;;;20.60;99.90;;;;;;5098281;27;37762;-55
2022/08/29 10:26:13;;;;;;;10.00;3.00;;;20.60;99.90;;;;;;5098669;27;37942;-55
2022/08/29 10:28:49;;;;;;;14.25;3.22;;;20.50;99.90;;;;;;5098153;27;37479;-55
2022/08/29 10:31:27;;;;;;;17.20;3.97;;;20.40;99.90;;;;;;5097365;27;35966;-57
2022/08/29 10:34:08;;;;;;;12.02;3.40;;;20.40;99.90;;;;;;5098724;27;36305;-57
2022/08/29 10:36:38;;;;;;;12.75;3.13;;;20.30;99.90;;;;;;5097652;27;36526;-57
2022/08/29 10:39:13;;;;;;;10.00;3.72;;;20.20;99.90;;;;;;5097082;27;37666;-57
2022/08/29 10:41:56;;;;;;;11.45;3.20;;;20.20;99.90;;;;;;5097516;27;35860;-57
2022/08/29 10:44:34;;;;;;;15.57;4.10;;;20.10;99.90;;;;;;5100904;27;38381;-56
2022/08/29 10:47:17;;;;;;;13.60;3.22;;;20.10;99.90;;;;;;5098845;27;37945;-57
2022/08/29 10:49:57;;;;;;;;;;;20.00;99.90;;;;;;5102555;27;37823;-57
2022/08/29 10:52:30;;;;;;;11.48;3.55;;;19.80;99.90;;;;;;5103666;27;38247;-56
2022/08/29 10:55:05;;;;;;;;;;;19.70;99.90;;;;;;5104675;27;36478;-57
2022/08/29 10:57:43;;;;;;;9.73;2.70;;;19.60;99.90;;;;;;5104285;27;37658;-57
2022/08/29 11:00:13;;;;;;;11.13;3.35;;;19.50;99.90;;;;;;5103518;27;37510;-57
2022/08/29 11:02:46;;;;;;;11.30;3.45;;;19.40;99.90;;;;;;5098109;27;37093;-57
2022/08/29 11:05:19;;;;;;;11.52;3.80;;;19.40;99.90;;;;;;5103639;27;38328;-57
2022/08/29 11:07:50;;;;;;;11.23;3.43;;;19.40;99.90;;;;;;5098136;27;37775;-57
2022/08/29 11:10:24;;;;;;;11.70;3.30;;;19.40;99.90;;;;;;5103951;27;37484;-57
2022/08/29 11:12:56;;;;;;;13.27;4.05;;;19.40;99.90;;;;;;5103487;27;37505;-56
2022/08/29 11:15:28;;;;;;;13.20;3.30;;;19.40;99.90;;;;;;5102318;27;39348;-57
2022/08/29 11:18:01;;;;;;;18.50;4.28;;;19.50;99.90;;;;;;5100217;27;37948;-57
2022/08/29 11:20:34;;;;;;;18.73;4.50;;;19.50;99.90;;;;;;5102941;27;36266;-57
2022/08/29 11:23:06;;;;;;;10.30;3.50;;;19.50;99.90;;;;;;5102888;27;37451;-57
2022/08/29 11:25:40;;;;;;;14.10;3.90;;;19.50;99.90;;;;;;5101662;27;38521;-56
2022/08/29 11:28:19;;;;;;;14.13;3.22;;;19.60;99.90;;;;;;5102465;27;37871;-57
2022/08/29 11:30:51;;;;;;;12.48;3.80;;;19.60;99.90;;;;;;5103080;27;37265;-57
2022/08/29 11:33:28;;;;;;;12.52;3.40;;;19.70;99.90;;;;;;5101440;27;36664;-57
2022/08/29 11:36:25;;;;;;;13.23;3.67;;;19.70;99.90;;;;;;5103040;27;38211;-57
2022/08/29 11:39:17;;;;;;;10.45;3.10;;;19.70;99.90;;;;;;5102779;27;38192;-57
2022/08/29 11:41:49;;;;;;;12.60;2.95;;;19.70;99.90;;;;;;5102556;27;37382;-57
2022/08/29 11:44:26;;;;;;;8.40;3.08;;;19.80;99.90;;;;;;5100984;27;35350;-57
2022/08/29 11:46:55;;;;;;;12.23;3.72;;;19.90;99.90;;;;;;5100966;27;38688;-57
2022/08/29 11:49:33;;;;;;;10.98;3.30;;;19.90;99.90;;;;;;5101426;27;39167;-57
2022/08/29 11:52:14;;;;;;;9.60;2.72;;;19.90;99.90;;;;;;5102443;27;36343;-57
2022/08/29 11:55:00;;;;;;;12.13;2.92;;;19.90;99.90;;;;;;5101821;27;36517;-57
2022/08/29 11:57:57;;;;;;;7.88;2.63;;;20.00;99.90;;;;;;5102424;27;38194;-57
2022/08/29 12:00:37;;;;;;;11.50;3.15;;;20.10;99.90;;;;;;5086976;27;37807;-57
2022/08/29 12:03:52;;;;;;;10.13;2.92;;;20.10;99.90;;;;;;5102357;27;37362;-57
2022/08/29 12:06:43;;;;;;;9.55;2.78;;;20.20;99.90;;;;;;5102634;27;36808;-57
2022/08/29 12:09:46;;;;;;;10.88;3.17;;;20.20;99.90;;;;;;5097482;27;37818;-57
2022/08/29 12:12:44;;;;;;;8.73;2.80;;;20.20;99.90;;;;;;5102407;27;37396;-57
2022/08/29 12:15:43;;;;;;;6.68;2.42;;;20.20;99.90;;;;;;5102677;27;36470;-57
2022/08/29 12:18:39;;;;;;;9.98;3.13;;;20.30;99.90;;;;;;5098644;27;35988;-57
2022/08/29 12:21:33;;;;;;;9.15;2.50;;;20.30;99.90;;;;;;5102076;27;38893;-57
2022/08/29 12:24:01;;;;;;;8.07;2.38;;;20.40;99.90;;;;;;5099484;27;38594;-57
2022/08/29 12:26:41;;;;;;;10.07;2.67;;;20.40;99.90;;;;;;5102018;27;37179;-57
2022/08/29 12:29:18;;;;;;;7.05;2.45;;;20.40;99.90;;;;;;5101688;27;35278;-57
2022/08/29 12:32:10;;;;;;;8.30;2.28;;;20.40;99.90;;;;;;5098422;27;38381;-57
2022/08/29 12:34:56;;;;;;;6.85;2.25;;;20.50;99.90;;;;;;5095839;27;36793;-57
2022/08/29 12:37:50;;;;;;;7.05;2.40;;;20.50;99.90;;;;;;5098679;27;38828;-57
2022/08/29 12:40:45;;;;;;;7.90;2.38;;;20.50;99.90;;;;;;5099043;27;36255;-57
2022/08/29 12:43:25;;;;;;;9.40;2.63;;;20.60;99.90;;;;;;5098347;27;37279;-57
2022/08/29 12:45:53;;;;;;;10.40;2.47;;;20.70;99.90;;;;;;5100268;27;42243;-57
2022/08/29 12:48:25;;;;;;;6.28;2.15;;;20.70;99.90;;;;;;5098865;27;38660;-57
2022/08/29 12:50:54;;;;;;;7.50;1.95;;;20.80;99.90;;;;;;5098813;27;36839;-57
2022/08/29 12:53:24;;;;;;;8.73;2.10;;;20.90;99.90;;;;;;5099829;27;37739;-57
2022/08/29 12:55:54;;;;;;;9.15;2.63;;;21.00;99.90;;;;;;5099966;27;38569;-57
2022/08/29 12:58:35;;;;;;;7.95;2.38;;;21.00;99.90;;;;;;5099266;27;37747;-57
2022/08/29 13:01:03;;;;;;;7.38;2.05;;;21.00;99.90;;;;;;5100965;27;36356;-57
2022/08/29 13:03:30;;;;;;;7.07;2.38;;;21.00;99.90;;;;;;5099093;27;37726;-57